createdAt,value
2018-09-08T00:00:27.561Z,0.00
2018-09-08T00:01:27.532Z,0.00
2018-09-08T00:02:27.505Z,0.00
2018-09-08T00:03:27.474Z,0.00
2018-09-08T00:04:27.446Z,0.00
2018-09-08T00:05:27.419Z,0.00
2018-09-08T00:06:27.388Z,0.00
2018-09-08T00:07:27.360Z,0.00
2018-09-08T00:08:27.330Z,0.00
2018-09-08T00:09:27.301Z,0.00
2018-09-08T00:10:27.272Z,0.00
2018-09-08T00:11:27.973Z,0.00
2018-09-08T00:12:27.977Z,0.00
2018-09-08T00:13:27.185Z,0.00
2018-09-08T00:14:27.156Z,0.00
2018-09-08T00:15:27.126Z,0.00
2018-09-08T00:16:27.100Z,0.00
2018-09-08T00:17:27.069Z,0.00
2018-09-08T00:18:27.041Z,0.00
2018-09-08T00:19:27.011Z,0.00
2018-09-08T00:20:26.984Z,0.00
2018-09-08T00:21:26.954Z,0.00
2018-09-08T00:22:26.923Z,0.00
2018-09-08T00:23:26.896Z,0.00
2018-09-08T00:24:26.866Z,0.00
2018-09-08T00:25:26.839Z,0.00
2018-09-08T00:26:26.809Z,0.00
2018-09-08T00:27:26.780Z,0.00
2018-09-08T00:28:26.751Z,0.00
2018-09-08T00:29:26.725Z,0.00
2018-09-08T00:30:26.693Z,0.00
2018-09-08T00:31:26.667Z,0.00
2018-09-08T00:32:26.634Z,0.00
2018-09-08T00:33:26.599Z,0.00
2018-09-08T00:34:26.579Z,0.00
2018-09-08T00:35:26.548Z,0.00
2018-09-08T00:36:26.519Z,0.00
2018-09-08T00:37:26.490Z,0.00
2018-09-08T00:38:26.498Z,0.00
2018-09-08T00:39:26.978Z,0.00
2018-09-08T00:40:26.408Z,0.00
2018-09-08T00:41:26.383Z,0.00
2018-09-08T00:42:26.345Z,0.00
2018-09-08T00:43:26.317Z,0.00
2018-09-08T00:44:26.286Z,0.00
2018-09-08T00:45:26.257Z,0.00
2018-09-08T00:46:26.232Z,0.00
2018-09-08T00:47:26.197Z,0.00
2018-09-08T00:48:26.171Z,0.00
2018-09-08T00:49:26.144Z,0.00
2018-09-08T00:50:26.112Z,0.00
2018-09-08T00:51:26.087Z,0.00
2018-09-08T00:52:26.054Z,0.00
2018-09-08T00:53:26.028Z,0.00
2018-09-08T00:54:25.996Z,0.00
2018-09-08T00:55:25.967Z,0.00
2018-09-08T00:56:25.945Z,0.00
2018-09-08T00:57:25.910Z,0.00
2018-09-08T00:58:26.482Z,0.00
2018-09-08T00:59:25.853Z,0.00
2018-09-08T01:00:25.821Z,0.00
2018-09-08T01:01:26.480Z,0.00
2018-09-08T01:02:25.764Z,0.00
2018-09-08T01:03:25.744Z,0.00
2018-09-08T01:04:25.712Z,0.00
2018-09-08T01:05:25.684Z,0.00
2018-09-08T01:06:25.645Z,0.00
2018-09-08T01:07:25.620Z,0.00
2018-09-08T01:08:25.591Z,0.00
2018-09-08T01:09:25.562Z,0.00
2018-09-08T01:10:25.536Z,0.00
2018-09-08T01:11:25.504Z,0.00
2018-09-08T01:12:25.474Z,0.00
2018-09-08T01:13:25.446Z,0.00
2018-09-08T01:14:25.421Z,0.00
2018-09-08T01:15:25.387Z,0.00
2018-09-08T01:16:25.361Z,0.00
2018-09-08T01:17:25.329Z,0.00
2018-09-08T01:18:25.303Z,0.00
2018-09-08T01:19:25.282Z,0.00
2018-09-08T01:20:25.987Z,0.00
2018-09-08T01:21:25.212Z,0.00
2018-09-08T01:22:25.185Z,0.00
2018-09-08T01:23:25.155Z,0.00
2018-09-08T01:24:25.125Z,0.00
2018-09-08T01:25:25.096Z,0.00
2018-09-08T01:26:25.067Z,0.00
2018-09-08T01:27:25.039Z,0.00
2018-09-08T01:28:25.010Z,0.00
2018-09-08T01:29:24.984Z,0.00
2018-09-08T01:30:24.952Z,0.00
2018-09-08T01:31:24.923Z,0.00
2018-09-08T01:32:24.892Z,0.00
2018-09-08T01:33:24.863Z,0.00
2018-09-08T01:34:24.835Z,0.00
2018-09-08T01:35:25.489Z,0.00
2018-09-08T01:36:24.776Z,0.00
2018-09-08T01:37:24.748Z,0.00
2018-09-08T01:38:24.720Z,0.00
2018-09-08T01:39:24.691Z,0.00
2018-09-08T01:40:24.660Z,0.00
2018-09-08T01:41:24.631Z,0.00
2018-09-08T01:42:24.653Z,0.00
2018-09-08T01:43:24.575Z,0.00
2018-09-08T01:44:24.544Z,0.00
2018-09-08T01:45:24.516Z,0.00
2018-09-08T01:46:24.489Z,0.00
2018-09-08T01:47:24.458Z,0.00
2018-09-08T01:48:24.427Z,0.00
2018-09-08T01:49:24.400Z,0.00
2018-09-08T01:50:24.369Z,0.00
2018-09-08T01:51:24.340Z,0.00
2018-09-08T01:52:24.312Z,0.00
2018-09-08T01:53:24.282Z,0.00
2018-09-08T01:54:24.256Z,0.00
2018-09-08T01:55:24.225Z,0.00
2018-09-08T01:56:24.196Z,0.00
2018-09-08T01:57:24.166Z,0.00
2018-09-08T01:58:24.142Z,0.00
2018-09-08T01:59:24.110Z,0.00
2018-09-08T02:00:24.081Z,0.00
2018-09-08T02:01:24.060Z,0.00
2018-09-08T02:02:24.025Z,0.00
2018-09-08T02:03:23.991Z,0.00
2018-09-08T02:04:23.962Z,0.00
2018-09-08T02:05:23.937Z,0.00
2018-09-08T02:06:23.908Z,0.00
2018-09-08T02:07:23.878Z,0.00
2018-09-08T02:08:23.846Z,0.00
2018-09-08T02:09:23.818Z,0.00
2018-09-08T02:10:23.786Z,0.00
2018-09-08T02:11:23.762Z,0.00
2018-09-08T02:12:23.733Z,0.00
2018-09-08T02:13:24.498Z,0.00
2018-09-08T02:14:23.676Z,0.00
2018-09-08T02:15:23.645Z,0.00
2018-09-08T02:16:23.620Z,0.00
2018-09-08T02:17:23.587Z,0.00
2018-09-08T02:18:23.557Z,0.00
2018-09-08T02:19:23.530Z,0.00
2018-09-08T02:20:23.502Z,0.00
2018-09-08T02:21:23.469Z,0.00
2018-09-08T02:22:23.444Z,0.00
2018-09-08T02:23:23.414Z,0.00
2018-09-08T02:24:23.385Z,0.00
2018-09-08T02:25:23.399Z,0.00
2018-09-08T02:26:23.326Z,0.00
2018-09-08T02:27:23.295Z,0.00
2018-09-08T02:28:23.269Z,0.00
2018-09-08T02:29:23.241Z,0.00
2018-09-08T02:30:23.212Z,0.00
2018-09-08T02:31:23.183Z,0.00
2018-09-08T02:32:23.153Z,0.00
2018-09-08T02:33:23.125Z,0.00
2018-09-08T02:34:23.095Z,0.00
2018-09-08T02:35:23.066Z,0.00
2018-09-08T02:36:23.037Z,0.00
2018-09-08T02:37:23.009Z,0.00
2018-09-08T02:38:22.978Z,0.00
2018-09-08T02:39:22.952Z,0.00
2018-09-08T02:40:23.500Z,0.00
2018-09-08T02:41:22.892Z,0.00
2018-09-08T02:42:22.866Z,0.00
2018-09-08T02:43:22.837Z,0.00
2018-09-08T02:44:22.808Z,0.00
2018-09-08T02:45:22.776Z,0.00
2018-09-08T02:46:22.749Z,0.00
2018-09-08T02:47:22.720Z,0.00
2018-09-08T02:48:22.690Z,0.00
2018-09-08T02:49:22.662Z,0.00
2018-09-08T02:50:22.632Z,0.00
2018-09-08T02:51:22.611Z,0.00
2018-09-08T02:52:24.501Z,0.00
2018-09-08T02:53:22.547Z,0.00
2018-09-08T02:54:22.519Z,0.00
2018-09-08T02:55:22.490Z,0.00
2018-09-08T02:56:22.459Z,0.00
2018-09-08T02:57:22.429Z,0.00
2018-09-08T02:58:23.997Z,0.00
2018-09-08T02:59:22.371Z,0.00
2018-09-08T03:00:22.345Z,0.00
2018-09-08T03:01:22.315Z,0.00
2018-09-08T03:02:22.286Z,0.00
2018-09-08T03:03:22.258Z,0.00
2018-09-08T03:04:22.227Z,0.00
2018-09-08T03:05:22.198Z,0.00
2018-09-08T03:06:22.171Z,0.00
2018-09-08T03:07:22.140Z,0.00
2018-09-08T03:08:22.116Z,0.00
2018-09-08T03:09:22.084Z,0.00
2018-09-08T03:10:22.057Z,0.00
2018-09-08T03:11:22.027Z,0.00
2018-09-08T03:12:21.998Z,0.00
2018-09-08T03:13:21.968Z,0.00
2018-09-08T03:14:21.939Z,0.00
2018-09-08T03:15:21.914Z,0.00
2018-09-08T03:16:21.888Z,0.00
2018-09-08T03:17:21.853Z,0.00
2018-09-08T03:18:21.821Z,0.00
2018-09-08T03:19:21.795Z,0.00
2018-09-08T03:20:21.764Z,0.00
2018-09-08T03:21:21.735Z,0.00
2018-09-08T03:22:21.708Z,0.00
2018-09-08T03:23:21.680Z,0.00
2018-09-08T03:24:21.649Z,0.00
2018-09-08T03:25:21.621Z,0.00
2018-09-08T03:26:21.592Z,0.00
2018-09-08T03:27:21.562Z,0.00
2018-09-08T03:28:21.536Z,0.00
2018-09-08T03:29:21.502Z,0.00
2018-09-08T03:30:21.475Z,0.00
2018-09-08T03:31:21.447Z,0.00
2018-09-08T03:32:21.415Z,0.00
2018-09-08T03:33:21.386Z,0.00
2018-09-08T03:34:21.357Z,0.00
2018-09-08T03:35:21.328Z,0.00
2018-09-08T03:36:21.301Z,0.00
2018-09-08T03:37:21.269Z,0.00
2018-09-08T03:38:21.240Z,0.00
2018-09-08T03:39:21.212Z,0.00
2018-09-08T03:40:21.180Z,0.00
2018-09-08T03:41:28.615Z,0.00
2018-09-08T03:43:15.069Z,0.00
2018-09-08T03:44:14.710Z,0.00
2018-09-08T03:46:07.629Z,0.00
2018-09-08T03:47:07.484Z,0.00
2018-09-08T03:49:00.610Z,0.00
2018-09-08T03:50:00.550Z,0.00
2018-09-08T03:51:53.378Z,0.00
2018-09-08T03:52:53.323Z,0.00
2018-09-08T03:54:47.051Z,4.00
2018-09-08T03:55:46.892Z,4.00
2018-09-08T03:57:40.486Z,0.00
2018-09-08T03:58:40.452Z,4.00
2018-09-08T04:00:34.384Z,4.00
2018-09-08T04:01:34.325Z,8.00
2018-09-08T04:03:27.625Z,8.00
2018-09-08T04:04:27.591Z,8.00
2018-09-08T04:06:21.205Z,12.00
2018-09-08T04:07:21.152Z,16.00
2018-09-08T04:09:13.955Z,20.00
2018-09-08T04:10:13.923Z,20.00
2018-09-08T04:12:06.752Z,28.00
2018-09-08T04:13:06.694Z,32.00
2018-09-08T04:15:00.016Z,40.00
2018-09-08T04:15:59.964Z,48.00
2018-09-08T04:17:53.555Z,64.00
2018-09-08T04:18:53.524Z,72.00
2018-09-08T04:20:46.847Z,92.00
2018-09-08T04:21:46.790Z,100.00
2018-09-08T04:23:40.090Z,128.00
2018-09-08T04:24:40.058Z,144.00
2018-09-08T04:26:33.182Z,172.00
2018-09-08T04:27:33.958Z,188.00
2018-09-08T04:29:25.979Z,228.00
2018-09-08T04:30:25.901Z,252.00
2018-09-08T04:31:25.870Z,276.00
2018-09-08T04:32:25.840Z,300.00
2018-09-08T04:33:25.811Z,324.00
2018-09-08T04:34:25.780Z,352.00
2018-09-08T04:35:26.530Z,380.00
2018-09-08T04:36:25.722Z,412.00
2018-09-08T04:37:25.699Z,440.00
2018-09-08T04:38:25.664Z,468.00
2018-09-08T04:39:25.634Z,500.00
2018-09-08T04:40:25.606Z,536.00
2018-09-08T04:41:25.577Z,568.00
2018-09-08T04:42:25.546Z,600.00
2018-09-08T04:43:25.518Z,636.00
2018-09-08T04:44:25.488Z,672.00
2018-09-08T04:45:25.464Z,704.00
2018-09-08T04:46:25.430Z,740.00
2018-09-08T04:47:25.400Z,776.00
2018-09-08T04:48:25.379Z,816.00
2018-09-08T04:49:25.343Z,848.00
2018-09-08T04:50:25.314Z,884.00
2018-09-08T04:51:25.283Z,920.00
2018-09-08T04:52:25.255Z,956.00
2018-09-08T04:53:25.225Z,992.00
2018-09-08T04:54:25.194Z,1028.00
2018-09-08T04:55:25.172Z,1064.00
2018-09-08T04:56:25.137Z,1100.00
2018-09-08T04:57:25.112Z,1132.00
2018-09-08T04:58:25.083Z,1168.00
2018-09-08T04:59:25.051Z,1196.00
2018-09-08T05:00:32.437Z,1232.00
2018-09-08T05:02:18.460Z,1292.00
2018-09-08T05:03:18.393Z,1324.00
2018-09-08T05:05:11.494Z,1384.00
2018-09-08T05:06:11.461Z,1412.00
2018-09-08T05:08:04.292Z,1472.00
2018-09-08T05:09:04.299Z,1500.00
2018-09-08T05:10:57.040Z,1560.00
2018-09-08T05:11:57.010Z,1588.00
2018-09-08T05:13:50.322Z,1644.00
2018-09-08T05:14:50.912Z,1676.00
2018-09-08T05:16:43.898Z,1748.00
2018-09-08T05:17:43.841Z,1772.00
2018-09-08T05:19:36.685Z,1844.00
2018-09-08T05:20:36.615Z,1892.00
2018-09-08T05:22:29.734Z,1988.00
2018-09-08T05:23:29.681Z,2036.00
2018-09-08T05:25:22.487Z,2140.00
2018-09-08T05:26:22.453Z,2196.00
2018-09-08T05:27:22.425Z,2252.00
2018-09-08T05:28:22.394Z,2316.00
2018-09-08T05:29:22.368Z,2360.00
2018-09-08T05:30:22.338Z,2420.00
2018-09-08T05:31:22.310Z,2464.00
2018-09-08T05:32:22.293Z,2504.00
2018-09-08T05:33:22.251Z,2536.00
2018-09-08T05:34:22.222Z,2572.00
2018-09-08T05:35:22.196Z,2600.00
2018-09-08T05:36:22.165Z,2624.00
2018-09-08T05:37:22.138Z,2648.00
2018-09-08T05:38:22.105Z,2668.00
2018-09-08T05:39:22.078Z,2696.00
2018-09-08T05:40:22.048Z,2724.00
2018-09-08T05:41:22.022Z,2760.00
2018-09-08T05:42:21.991Z,2796.00
2018-09-08T05:43:21.962Z,2840.00
2018-09-08T05:44:21.933Z,2884.00
2018-09-08T05:45:21.905Z,2928.00
2018-09-08T05:46:21.878Z,3008.00
2018-09-08T05:47:21.848Z,3076.00
2018-09-08T05:48:21.821Z,3124.00
2018-09-08T05:49:21.790Z,3196.00
2018-09-08T05:50:21.765Z,3248.00
2018-09-08T05:51:21.732Z,3320.00
2018-09-08T05:52:21.704Z,3396.00
2018-09-08T05:53:21.677Z,3468.00
2018-09-08T05:54:21.646Z,3544.00
2018-09-08T05:55:21.618Z,3608.00
2018-09-08T05:56:21.590Z,3692.00
2018-09-08T05:57:21.560Z,3768.00
2018-09-08T05:58:21.574Z,3844.00
2018-09-08T05:59:21.502Z,3908.00
2018-09-08T06:00:21.478Z,3976.00
2018-09-08T06:01:21.449Z,4044.00
2018-09-08T06:02:21.418Z,4108.00
2018-09-08T06:03:21.390Z,4172.00
2018-09-08T06:04:21.361Z,4232.00
2018-09-08T06:05:21.333Z,4292.00
2018-09-08T06:06:21.302Z,4348.00
2018-09-08T06:07:21.275Z,4416.00
2018-09-08T06:08:21.249Z,4468.00
2018-09-08T06:09:21.218Z,4532.00
2018-09-08T06:10:21.280Z,4580.00
2018-09-08T06:11:21.160Z,4644.00
2018-09-08T06:12:21.135Z,4672.00
2018-09-08T06:13:21.105Z,4716.00
2018-09-08T06:14:21.077Z,4776.00
2018-09-08T06:15:21.048Z,4836.00
2018-09-08T06:16:21.021Z,4860.00
2018-09-08T06:17:21.045Z,4908.00
2018-09-08T06:18:21.036Z,4964.00
2018-09-08T06:19:20.935Z,5004.00
2018-09-08T06:20:20.907Z,5048.00
2018-09-08T06:21:20.878Z,5096.00
2018-09-08T06:22:20.851Z,5144.00
2018-09-08T06:23:20.823Z,5192.00
2018-09-08T06:24:20.841Z,5224.00
2018-09-08T06:25:20.807Z,5284.00
2018-09-08T06:26:20.738Z,5324.00
2018-09-08T06:27:20.711Z,5368.00
2018-09-08T06:28:20.685Z,5396.00
2018-09-08T06:29:20.657Z,5440.00
2018-09-08T06:30:20.629Z,5476.00
2018-09-08T06:31:20.598Z,5532.00
2018-09-08T06:32:20.568Z,5560.00
2018-09-08T06:33:20.547Z,5588.00
2018-09-08T06:34:20.513Z,5636.00
2018-09-08T06:35:20.590Z,5668.00
2018-09-08T06:36:20.458Z,5720.00
2018-09-08T06:37:20.432Z,5768.00
2018-09-08T06:38:20.405Z,5800.00
2018-09-08T06:39:20.373Z,5864.00
2018-09-08T06:40:20.345Z,5896.00
2018-09-08T06:41:20.320Z,5932.00
2018-09-08T06:42:20.288Z,5992.00
2018-09-08T06:43:20.265Z,6020.00
2018-09-08T06:44:20.235Z,6040.00
2018-09-08T06:45:20.269Z,6096.00
2018-09-08T06:46:20.181Z,6152.00
2018-09-08T06:47:20.154Z,6196.00
2018-09-08T06:48:20.126Z,6232.00
2018-09-08T06:49:20.097Z,6268.00
2018-09-08T06:50:20.073Z,6324.00
2018-09-08T06:51:20.044Z,6372.00
2018-09-08T06:52:20.158Z,6388.00
2018-09-08T06:53:19.986Z,6428.00
2018-09-08T06:54:19.959Z,6444.00
2018-09-08T06:55:19.930Z,6520.00
2018-09-08T06:56:19.903Z,6556.00
2018-09-08T06:57:19.877Z,6624.00
2018-09-08T06:58:19.853Z,6652.00
2018-09-08T06:59:19.824Z,6716.00
2018-09-08T07:00:19.793Z,6752.00
2018-09-08T07:01:19.767Z,6820.00
2018-09-08T07:02:19.740Z,6856.00
2018-09-08T07:03:19.717Z,6928.00
2018-09-08T07:04:19.684Z,6952.00
2018-09-08T07:05:19.658Z,7008.00
2018-09-08T07:06:19.628Z,7068.00
2018-09-08T07:07:19.603Z,7128.00
2018-09-08T07:08:19.576Z,7156.00
2018-09-08T07:09:19.548Z,7196.00
2018-09-08T07:10:19.521Z,7260.00
2018-09-08T07:11:19.494Z,7320.00
2018-09-08T07:12:19.466Z,7376.00
2018-09-08T07:13:19.439Z,7448.00
2018-09-08T07:14:19.413Z,7492.00
2018-09-08T07:15:19.471Z,7528.00
2018-09-08T07:16:19.359Z,7580.00
2018-09-08T07:17:19.331Z,7648.00
2018-09-08T07:18:19.303Z,7688.00
2018-09-08T07:19:19.277Z,7732.00
2018-09-08T07:20:19.265Z,7768.00
2018-09-08T07:21:19.223Z,7828.00
2018-09-08T07:22:19.195Z,7840.00
2018-09-08T07:23:19.169Z,7892.00
2018-09-08T07:24:19.142Z,7944.00
2018-09-08T07:25:19.121Z,7996.00
2018-09-08T07:26:19.089Z,7980.00
2018-09-08T07:27:19.062Z,7672.00
2018-09-08T07:28:19.036Z,7212.00
2018-09-08T07:29:19.010Z,7836.00
2018-09-08T07:30:18.982Z,8096.00
2018-09-08T07:31:18.954Z,8172.00
2018-09-08T07:32:18.930Z,8208.00
2018-09-08T07:33:18.902Z,8184.00
2018-09-08T07:34:18.875Z,8304.00
2018-09-08T07:35:18.849Z,8320.00
2018-09-08T07:36:18.823Z,8316.00
2018-09-08T07:37:18.845Z,8356.00
2018-09-08T07:38:26.178Z,8428.00
2018-09-08T07:40:11.605Z,8496.00
2018-09-08T07:41:11.551Z,8516.00
2018-09-08T07:42:11.524Z,8532.00
2018-09-08T07:43:11.499Z,8596.00
2018-09-08T07:44:11.473Z,8692.00
2018-09-08T07:45:11.446Z,8660.00
2018-09-08T07:46:11.420Z,8712.00
2018-09-08T07:47:11.390Z,8780.00
2018-09-08T07:48:11.367Z,8844.00
2018-09-08T07:49:11.341Z,8828.00
2018-09-08T07:50:11.315Z,8892.00
2018-09-08T07:51:11.289Z,8932.00
2018-09-08T07:52:11.264Z,8964.00
2018-09-08T07:53:11.290Z,8992.00
2018-09-08T07:54:11.212Z,9016.00
2018-09-08T07:55:11.185Z,9064.00
2018-09-08T07:56:11.162Z,9064.00
2018-09-08T07:57:11.135Z,9164.00
2018-09-08T07:58:11.107Z,9072.00
2018-09-08T07:59:11.088Z,9216.00
2018-09-08T08:00:11.056Z,9080.00
2018-09-08T08:01:11.031Z,9204.00
2018-09-08T08:02:11.006Z,9316.00
2018-09-08T08:03:10.979Z,9424.00
2018-09-08T08:04:10.958Z,9396.00
2018-09-08T08:05:10.930Z,9352.00
2018-09-08T08:06:10.901Z,9356.00
2018-09-08T08:07:10.876Z,9632.00
2018-09-08T08:08:10.853Z,9624.00
2018-09-08T08:09:10.829Z,9724.00
2018-09-08T08:10:10.801Z,9656.00
2018-09-08T08:11:10.779Z,9420.00
2018-09-08T08:12:10.751Z,9708.00
2018-09-08T08:13:10.725Z,9696.00
2018-09-08T08:14:10.698Z,9704.00
2018-09-08T08:15:10.673Z,9304.00
2018-09-08T08:16:10.650Z,9520.00
2018-09-08T08:17:10.627Z,9700.00
2018-09-08T08:18:10.599Z,9980.00
2018-09-08T08:19:10.570Z,10056.00
2018-09-08T08:20:10.551Z,10108.00
2018-09-08T08:21:10.522Z,10068.00
2018-09-08T08:22:10.497Z,9208.00
2018-09-08T08:23:10.521Z,9648.00
2018-09-08T08:24:10.450Z,9852.00
2018-09-08T08:25:10.425Z,9912.00
2018-09-08T08:26:10.399Z,9804.00
2018-09-08T08:27:10.372Z,9804.00
2018-09-08T08:28:10.349Z,9764.00
2018-09-08T08:29:10.322Z,9272.00
2018-09-08T08:30:10.298Z,9744.00
2018-09-08T08:31:10.329Z,9736.00
2018-09-08T08:32:10.248Z,10188.00
2018-09-08T08:33:10.223Z,10240.00
2018-09-08T08:34:10.199Z,10496.00
2018-09-08T08:35:10.174Z,10696.00
2018-09-08T08:36:10.148Z,10804.00
2018-09-08T08:37:10.136Z,10856.00
2018-09-08T08:38:10.100Z,10840.00
2018-09-08T08:39:10.690Z,10860.00
2018-09-08T08:40:10.047Z,10892.00
2018-09-08T08:41:10.024Z,10884.00
2018-09-08T08:42:10.000Z,11080.00
2018-09-08T08:43:09.991Z,11096.00
2018-09-08T08:44:09.950Z,10912.00
2018-09-08T08:45:09.924Z,11236.00
2018-09-08T08:46:09.899Z,11276.00
2018-09-08T08:47:09.874Z,11440.00
2018-09-08T08:48:09.852Z,11440.00
2018-09-08T08:49:09.827Z,11556.00
2018-09-08T08:50:09.802Z,11524.00
2018-09-08T08:51:09.782Z,11564.00
2018-09-08T08:52:09.756Z,11636.00
2018-09-08T08:53:09.739Z,11644.00
2018-09-08T08:54:09.705Z,11756.00
2018-09-08T08:55:09.682Z,11796.00
2018-09-08T08:56:09.654Z,11784.00
2018-09-08T08:57:09.628Z,11780.00
2018-09-08T08:58:09.608Z,11860.00
2018-09-08T08:59:09.584Z,11960.00
2018-09-08T09:00:09.559Z,5436.00
2018-09-08T09:01:10.198Z,11584.00
2018-09-08T09:02:09.511Z,11948.00
2018-09-08T09:03:09.489Z,11996.00
2018-09-08T09:04:09.462Z,12068.00
2018-09-08T09:05:09.438Z,12132.00
2018-09-08T09:06:09.417Z,8284.00
2018-09-08T09:07:09.394Z,12096.00
2018-09-08T09:08:09.366Z,12044.00
2018-09-08T09:09:09.341Z,11784.00
2018-09-08T09:10:09.318Z,11536.00
2018-09-08T09:11:09.299Z,11752.00
2018-09-08T09:12:09.273Z,11840.00
2018-09-08T09:13:09.257Z,12092.00
2018-09-08T09:14:09.223Z,11808.00
2018-09-08T09:15:10.571Z,11824.00
2018-09-08T09:16:09.176Z,4896.00
2018-09-08T09:17:09.150Z,9904.00
2018-09-08T09:18:09.131Z,7752.00
2018-09-08T09:19:09.107Z,12140.00
2018-09-08T09:20:09.084Z,12036.00
2018-09-08T09:21:09.059Z,12224.00
2018-09-08T09:22:09.034Z,12396.00
2018-09-08T09:23:09.011Z,12244.00
2018-09-08T09:24:09.015Z,12152.00
2018-09-08T09:25:08.966Z,12048.00
2018-09-08T09:26:08.940Z,12260.00
2018-09-08T09:27:08.918Z,12260.00
2018-09-08T09:28:08.896Z,12112.00
2018-09-08T09:29:08.868Z,11884.00
2018-09-08T09:30:08.846Z,11508.00
2018-09-08T09:31:08.825Z,11668.00
2018-09-08T09:32:08.799Z,11568.00
2018-09-08T09:33:08.776Z,11324.00
2018-09-08T09:34:08.754Z,11384.00
2018-09-08T09:35:08.730Z,11440.00
2018-09-08T09:36:08.708Z,11028.00
2018-09-08T09:37:08.718Z,11276.00
2018-09-08T09:38:08.659Z,5112.00
2018-09-08T09:39:08.636Z,5548.00
2018-09-08T09:40:08.611Z,11664.00
2018-09-08T09:41:08.590Z,11752.00
2018-09-08T09:42:08.569Z,11292.00
2018-09-08T09:43:08.537Z,11244.00
2018-09-08T09:44:08.542Z,11096.00
2018-09-08T09:45:08.495Z,11148.00
2018-09-08T09:46:08.471Z,11164.00
2018-09-08T09:47:08.448Z,11272.00
2018-09-08T09:48:08.426Z,11436.00
2018-09-08T09:49:08.401Z,11360.00
2018-09-08T09:50:08.378Z,11336.00
2018-09-08T09:51:08.355Z,11468.00
2018-09-08T09:52:08.337Z,11368.00
2018-09-08T09:53:08.323Z,11972.00
2018-09-08T09:54:08.290Z,11404.00
2018-09-08T09:55:08.261Z,11424.00
2018-09-08T09:56:08.238Z,11144.00
2018-09-08T09:57:08.256Z,11668.00
2018-09-08T09:58:08.191Z,12048.00
2018-09-08T09:59:08.170Z,12164.00
2018-09-08T10:00:08.146Z,11704.00
2018-09-08T10:01:08.204Z,12004.00
2018-09-08T10:02:08.100Z,9748.00
2018-09-08T10:03:08.080Z,10740.00
2018-09-08T10:04:08.054Z,9468.00
2018-09-08T10:05:08.029Z,11568.00
2018-09-08T10:06:08.006Z,12004.00
2018-09-08T10:07:07.985Z,11784.00
2018-09-08T10:08:07.972Z,10916.00
2018-09-08T10:09:07.937Z,12444.00
2018-09-08T10:10:07.915Z,9332.00
2018-09-08T10:11:07.892Z,13024.00
2018-09-08T10:12:07.934Z,13116.00
2018-09-08T10:13:07.847Z,13064.00
2018-09-08T10:14:07.821Z,12768.00
2018-09-08T10:15:08.710Z,12848.00
2018-09-08T10:16:07.777Z,12624.00
2018-09-08T10:17:07.754Z,11956.00
2018-09-08T10:18:07.732Z,11628.00
2018-09-08T10:19:07.709Z,11632.00
2018-09-08T10:20:07.685Z,13060.00
2018-09-08T10:21:07.662Z,13452.00
2018-09-08T10:22:07.640Z,13744.00
2018-09-08T10:23:07.641Z,13068.00
2018-09-08T10:24:08.212Z,11652.00
2018-09-08T10:25:07.571Z,11944.00
2018-09-08T10:26:07.550Z,8764.00
2018-09-08T10:27:07.529Z,13360.00
2018-09-08T10:28:07.503Z,12056.00
2018-09-08T10:29:07.482Z,13204.00
2018-09-08T10:30:07.460Z,13316.00
2018-09-08T10:31:07.440Z,13292.00
2018-09-08T10:32:07.893Z,13312.00
2018-09-08T10:33:07.393Z,13340.00
2018-09-08T10:34:07.372Z,13524.00
2018-09-08T10:35:07.353Z,13572.00
2018-09-08T10:36:07.327Z,13528.00
2018-09-08T10:37:07.304Z,13132.00
2018-09-08T10:38:07.285Z,13144.00
2018-09-08T10:39:07.261Z,13196.00
2018-09-08T10:40:07.263Z,13312.00
2018-09-08T10:41:07.216Z,13648.00
2018-09-08T10:42:07.195Z,13680.00
2018-09-08T10:43:07.174Z,13764.00
2018-09-08T10:44:07.151Z,13680.00
2018-09-08T10:45:07.128Z,8656.00
2018-09-08T10:46:07.106Z,14136.00
2018-09-08T10:47:07.086Z,14360.00
2018-09-08T10:48:07.069Z,14892.00
2018-09-08T10:49:07.043Z,15392.00
2018-09-08T10:50:07.021Z,15456.00
2018-09-08T10:51:07.004Z,15164.00
2018-09-08T10:52:06.979Z,15360.00
2018-09-08T10:53:06.959Z,7992.00
2018-09-08T10:54:06.936Z,7536.00
2018-09-08T10:55:06.910Z,14900.00
2018-09-08T10:56:07.720Z,12220.00
2018-09-08T10:57:06.872Z,8508.00
2018-09-08T10:58:06.851Z,14448.00
2018-09-08T10:59:07.720Z,14248.00
2018-09-08T11:00:06.812Z,10132.00
2018-09-08T11:01:06.789Z,6880.00
2018-09-08T11:02:06.899Z,14296.00
2018-09-08T11:03:06.749Z,11764.00
2018-09-08T11:04:06.727Z,6092.00
2018-09-08T11:05:06.705Z,12016.00
2018-09-08T11:06:06.685Z,13836.00
2018-09-08T11:07:06.664Z,13440.00
2018-09-08T11:08:06.643Z,6428.00
2018-09-08T11:09:06.617Z,13184.00
2018-09-08T11:10:06.599Z,13064.00
2018-09-08T11:11:06.580Z,12960.00
2018-09-08T11:12:06.556Z,13268.00
2018-09-08T11:13:06.534Z,5268.00
2018-09-08T11:14:06.517Z,5568.00
2018-09-08T11:15:06.493Z,5216.00
2018-09-08T11:16:06.471Z,13560.00
2018-09-08T11:17:06.450Z,13328.00
2018-09-08T11:18:06.431Z,13288.00
2018-09-08T11:19:06.409Z,13368.00
2018-09-08T11:20:06.386Z,13588.00
2018-09-08T11:21:06.367Z,13780.00
2018-09-08T11:22:06.345Z,13976.00
2018-09-08T11:23:06.324Z,14120.00
2018-09-08T11:24:06.307Z,6112.00
2018-09-08T11:25:06.282Z,8396.00
2018-09-08T11:26:06.260Z,6592.00
2018-09-08T11:27:06.239Z,7020.00
2018-09-08T11:28:06.219Z,7388.00
2018-09-08T11:29:06.199Z,16032.00
2018-09-08T11:30:06.175Z,7964.00
2018-09-08T11:31:06.731Z,16448.00
2018-09-08T11:32:06.133Z,16512.00
2018-09-08T11:33:06.112Z,12076.00
2018-09-08T11:34:06.090Z,8228.00
2018-09-08T11:35:06.076Z,14164.00
2018-09-08T11:36:06.057Z,15368.00
2018-09-08T11:37:06.028Z,14600.00
2018-09-08T11:38:06.022Z,8932.00
2018-09-08T11:39:05.985Z,15328.00
2018-09-08T11:40:05.968Z,16608.00
2018-09-08T11:41:06.728Z,15872.00
2018-09-08T11:42:05.926Z,8628.00
2018-09-08T11:43:05.902Z,8904.00
2018-09-08T11:44:05.881Z,9900.00
2018-09-08T11:45:05.860Z,10780.00
2018-09-08T11:46:05.841Z,10904.00
2018-09-08T11:47:05.819Z,10868.00
2018-09-08T11:48:05.798Z,8664.00
2018-09-08T11:49:05.777Z,16320.00
2018-09-08T11:50:05.756Z,16608.00
2018-09-08T11:51:05.737Z,15936.00
2018-09-08T11:52:05.716Z,13996.00
2018-09-08T11:53:05.694Z,8092.00
2018-09-08T11:54:05.675Z,6116.00
2018-09-08T11:55:05.653Z,6020.00
2018-09-08T11:56:05.633Z,6124.00
2018-09-08T11:57:05.610Z,6472.00
2018-09-08T11:58:05.591Z,8204.00
2018-09-08T11:59:05.573Z,11972.00
2018-09-08T12:00:05.550Z,13028.00
2018-09-08T12:01:05.529Z,14528.00
2018-09-08T12:02:05.519Z,14424.00
2018-09-08T12:03:05.530Z,14212.00
2018-09-08T12:04:05.466Z,13748.00
2018-09-08T12:05:05.444Z,11728.00
2018-09-08T12:06:05.422Z,13320.00
2018-09-08T12:07:05.402Z,13348.00
2018-09-08T12:08:05.435Z,13212.00
2018-09-08T12:09:05.361Z,13176.00
2018-09-08T12:10:05.338Z,13156.00
2018-09-08T12:11:05.318Z,13112.00
2018-09-08T12:12:05.300Z,13004.00
2018-09-08T12:13:05.280Z,12992.00
2018-09-08T12:14:06.237Z,12884.00
2018-09-08T12:15:05.233Z,12780.00
2018-09-08T12:16:05.217Z,12848.00
2018-09-08T12:17:05.194Z,12792.00
2018-09-08T12:18:05.170Z,12920.00
2018-09-08T12:19:05.183Z,12944.00
2018-09-08T12:20:05.129Z,13100.00
2018-09-08T12:21:05.109Z,13348.00
2018-09-08T12:22:05.131Z,13596.00
2018-09-08T12:23:05.066Z,5708.00
2018-09-08T12:24:05.047Z,5728.00
2018-09-08T12:25:05.026Z,6040.00
2018-09-08T12:26:05.004Z,13500.00
2018-09-08T12:27:04.984Z,14440.00
2018-09-08T12:28:04.964Z,12288.00
2018-09-08T12:29:04.939Z,13896.00
2018-09-08T12:30:04.920Z,13688.00
2018-09-08T12:31:04.941Z,13188.00
2018-09-08T12:32:04.878Z,5404.00
2018-09-08T12:33:04.856Z,5332.00
2018-09-08T12:34:04.837Z,6044.00
2018-09-08T12:35:04.816Z,6440.00
2018-09-08T12:36:04.797Z,7312.00
2018-09-08T12:37:04.802Z,6160.00
2018-09-08T12:38:04.756Z,5388.00
2018-09-08T12:39:04.738Z,5140.00
2018-09-08T12:40:04.713Z,5612.00
2018-09-08T12:41:04.690Z,7612.00
2018-09-08T12:42:04.669Z,6464.00
2018-09-08T12:43:04.646Z,11844.00
2018-09-08T12:44:04.625Z,12392.00
2018-09-08T12:45:04.637Z,7720.00
2018-09-08T12:46:04.583Z,6248.00